sensor_id;sensor_type;location;lat;lon;timestamp;P1;durP1;ratioP1;P2;durP2;ratioP2
12758;SDS011;20944;47.048;15.390;2023-06-22T00:01:30;4.50;;;3.25;;
12758;SDS011;20944;47.048;15.390;2023-06-22T00:03:58;5.00;;;3.53;;
12758;SDS011;20944;47.048;15.390;2023-06-22T00:06:27;6.22;;;4.00;;
12758;SDS011;20944;47.048;15.390;2023-06-22T00:08:56;5.80;;;3.78;;
12758;SDS011;20944;47.048;15.390;2023-06-22T00:11:24;5.72;;;3.75;;
12758;SDS011;20944;47.048;15.390;2023-06-22T00:13:54;3.75;;;2.75;;
12758;SDS011;20944;47.048;15.390;2023-06-22T00:16:24;4.30;;;3.33;;
12758;SDS011;20944;47.048;15.390;2023-06-22T00:18:53;7.13;;;3.25;;
12758;SDS011;20944;47.048;15.390;2023-06-22T00:21:21;4.22;;;2.92;;
12758;SDS011;20944;47.048;15.390;2023-06-22T00:23:49;4.38;;;3.33;;
12758;SDS011;20944;47.048;15.390;2023-06-22T00:26:18;4.28;;;3.42;;
12758;SDS011;20944;47.048;15.390;2023-06-22T00:28:47;6.53;;;3.60;;
12758;SDS011;20944;47.048;15.390;2023-06-22T00:31:15;6.15;;;3.47;;
12758;SDS011;20944;47.048;15.390;2023-06-22T00:33:45;9.35;;;3.55;;
12758;SDS011;20944;47.048;15.390;2023-06-22T00:36:14;6.03;;;3.75;;
12758;SDS011;20944;47.048;15.390;2023-06-22T00:38:44;5.57;;;4.15;;
12758;SDS011;20944;47.048;15.390;2023-06-22T00:41:12;4.45;;;3.50;;
12758;SDS011;20944;47.048;15.390;2023-06-22T00:43:41;4.68;;;3.35;;
12758;SDS011;20944;47.048;15.390;2023-06-22T00:46:09;4.22;;;3.13;;
12758;SDS011;20944;47.048;15.390;2023-06-22T00:48:38;6.30;;;3.22;;
12758;SDS011;20944;47.048;15.390;2023-06-22T00:51:11;4.25;;;3.22;;
12758;SDS011;20944;47.048;15.390;2023-06-22T00:53:40;8.20;;;3.40;;
12758;SDS011;20944;47.048;15.390;2023-06-22T00:56:09;6.85;;;3.72;;
12758;SDS011;20944;47.048;15.390;2023-06-22T00:58:39;4.30;;;3.13;;
12758;SDS011;20944;47.048;15.390;2023-06-22T01:01:08;6.18;;;3.40;;
12758;SDS011;20944;47.048;15.390;2023-06-22T01:03:37;4.88;;;3.08;;
12758;SDS011;20944;47.048;15.390;2023-06-22T01:06:07;6.63;;;3.05;;
12758;SDS011;20944;47.048;15.390;2023-06-22T01:08:46;6.35;;;3.53;;
12758;SDS011;20944;47.048;15.390;2023-06-22T01:11:21;5.07;;;3.00;;
12758;SDS011;20944;47.048;15.390;2023-06-22T01:13:55;3.58;;;2.90;;
12758;SDS011;20944;47.048;15.390;2023-06-22T01:16:29;9.73;;;2.83;;
12758;SDS011;20944;47.048;15.390;2023-06-22T01:19:00;9.40;;;3.13;;
12758;SDS011;20944;47.048;15.390;2023-06-22T01:21:35;6.50;;;3.05;;
12758;SDS011;20944;47.048;15.390;2023-06-22T01:24:10;5.65;;;2.70;;
12758;SDS011;20944;47.048;15.390;2023-06-22T01:26:48;4.93;;;2.65;;
12758;SDS011;20944;47.048;15.390;2023-06-22T01:29:29;7.88;;;2.60;;
12758;SDS011;20944;47.048;15.390;2023-06-22T01:32:00;4.53;;;2.90;;
12758;SDS011;20944;47.048;15.390;2023-06-22T01:34:35;5.43;;;2.55;;
12758;SDS011;20944;47.048;15.390;2023-06-22T01:37:06;4.35;;;2.63;;
12758;SDS011;20944;47.048;15.390;2023-06-22T01:39:36;6.45;;;2.78;;
12758;SDS011;20944;47.048;15.390;2023-06-22T01:42:04;4.78;;;2.90;;
12758;SDS011;20944;47.048;15.390;2023-06-22T01:44:35;5.15;;;2.60;;
12758;SDS011;20944;47.048;15.390;2023-06-22T01:47:05;3.78;;;2.83;;
12758;SDS011;20944;47.048;15.390;2023-06-22T01:49:35;7.60;;;2.97;;
12758;SDS011;20944;47.048;15.390;2023-06-22T01:52:03;8.20;;;3.58;;
12758;SDS011;20944;47.048;15.390;2023-06-22T01:54:32;4.80;;;3.22;;
12758;SDS011;20944;47.048;15.390;2023-06-22T01:57:01;4.68;;;3.50;;
12758;SDS011;20944;47.048;15.390;2023-06-22T01:59:32;7.30;;;3.45;;
12758;SDS011;20944;47.048;15.390;2023-06-22T02:02:10;3.67;;;2.95;;
12758;SDS011;20944;47.048;15.390;2023-06-22T02:04:44;3.58;;;3.25;;
12758;SDS011;20944;47.048;15.390;2023-06-22T02:07:17;7.57;;;2.92;;
12758;SDS011;20944;47.048;15.390;2023-06-22T02:09:46;6.35;;;3.08;;
12758;SDS011;20944;47.048;15.390;2023-06-22T02:12:21;5.20;;;3.10;;
12758;SDS011;20944;47.048;15.390;2023-06-22T02:14:55;6.10;;;3.15;;
12758;SDS011;20944;47.048;15.390;2023-06-22T02:17:24;6.63;;;3.17;;
12758;SDS011;20944;47.048;15.390;2023-06-22T02:19:54;4.07;;;2.92;;
12758;SDS011;20944;47.048;15.390;2023-06-22T02:22:22;5.15;;;2.80;;
12758;SDS011;20944;47.048;15.390;2023-06-22T02:24:51;7.55;;;3.75;;
12758;SDS011;20944;47.048;15.390;2023-06-22T02:27:19;4.82;;;2.85;;
12758;SDS011;20944;47.048;15.390;2023-06-22T02:29:48;9.43;;;3.55;;
12758;SDS011;20944;47.048;15.390;2023-06-22T02:32:18;4.45;;;3.35;;
12758;SDS011;20944;47.048;15.390;2023-06-22T02:34:47;5.78;;;3.20;;
12758;SDS011;20944;47.048;15.390;2023-06-22T02:37:15;4.75;;;3.72;;
12758;SDS011;20944;47.048;15.390;2023-06-22T02:39:44;3.78;;;3.15;;
12758;SDS011;20944;47.048;15.390;2023-06-22T02:42:13;5.13;;;3.17;;
12758;SDS011;20944;47.048;15.390;2023-06-22T02:44:41;5.20;;;3.30;;
12758;SDS011;20944;47.048;15.390;2023-06-22T02:47:10;6.03;;;3.20;;
12758;SDS011;20944;47.048;15.390;2023-06-22T02:49:40;6.75;;;3.60;;
12758;SDS011;20944;47.048;15.390;2023-06-22T02:52:08;6.55;;;3.58;;
12758;SDS011;20944;47.048;15.390;2023-06-22T02:54:37;8.60;;;3.08;;
12758;SDS011;20944;47.048;15.390;2023-06-22T02:57:05;5.78;;;3.25;;
12758;SDS011;20944;47.048;15.390;2023-06-22T02:59:40;7.32;;;3.38;;
12758;SDS011;20944;47.048;15.390;2023-06-22T03:02:09;5.35;;;3.78;;
12758;SDS011;20944;47.048;15.390;2023-06-22T03:04:37;7.55;;;4.22;;
12758;SDS011;20944;47.048;15.390;2023-06-22T03:07:08;5.22;;;3.22;;
12758;SDS011;20944;47.048;15.390;2023-06-22T03:09:37;5.93;;;3.72;;
12758;SDS011;20944;47.048;15.390;2023-06-22T03:12:05;4.13;;;2.88;;
12758;SDS011;20944;47.048;15.390;2023-06-22T03:14:34;6.65;;;4.00;;
12758;SDS011;20944;47.048;15.390;2023-06-22T03:17:03;5.13;;;3.22;;
12758;SDS011;20944;47.048;15.390;2023-06-22T03:19:33;4.65;;;3.53;;
12758;SDS011;20944;47.048;15.390;2023-06-22T03:22:03;6.47;;;3.75;;
12758;SDS011;20944;47.048;15.390;2023-06-22T03:24:33;6.53;;;3.90;;
12758;SDS011;20944;47.048;15.390;2023-06-22T03:27:04;7.50;;;3.65;;
12758;SDS011;20944;47.048;15.390;2023-06-22T03:29:33;7.90;;;3.97;;
12758;SDS011;20944;47.048;15.390;2023-06-22T03:32:01;8.45;;;4.75;;
12758;SDS011;20944;47.048;15.390;2023-06-22T03:34:31;9.23;;;3.92;;
12758;SDS011;20944;47.048;15.390;2023-06-22T03:37:01;3.80;;;3.03;;
12758;SDS011;20944;47.048;15.390;2023-06-22T03:39:31;6.78;;;3.15;;
12758;SDS011;20944;47.048;15.390;2023-06-22T03:42:00;7.15;;;3.90;;
12758;SDS011;20944;47.048;15.390;2023-06-22T03:44:28;5.78;;;3.08;;
12758;SDS011;20944;47.048;15.390;2023-06-22T03:46:56;6.28;;;3.60;;
12758;SDS011;20944;47.048;15.390;2023-06-22T03:49:25;6.88;;;4.00;;
12758;SDS011;20944;47.048;15.390;2023-06-22T03:51:53;7.55;;;3.85;;
12758;SDS011;20944;47.048;15.390;2023-06-22T03:54:23;6.18;;;3.85;;
12758;SDS011;20944;47.048;15.390;2023-06-22T03:56:52;4.53;;;3.78;;
12758;SDS011;20944;47.048;15.390;2023-06-22T03:59:20;9.20;;;3.95;;
12758;SDS011;20944;47.048;15.390;2023-06-22T04:01:49;8.15;;;4.30;;
12758;SDS011;20944;47.048;15.390;2023-06-22T04:04:17;6.60;;;4.10;;
12758;SDS011;20944;47.048;15.390;2023-06-22T04:06:46;8.45;;;4.15;;
12758;SDS011;20944;47.048;15.390;2023-06-22T04:09:14;5.43;;;4.03;;
12758;SDS011;20944;47.048;15.390;2023-06-22T04:11:45;5.05;;;3.28;;
12758;SDS011;20944;47.048;15.390;2023-06-22T04:14:13;5.50;;;3.95;;
12758;SDS011;20944;47.048;15.390;2023-06-22T04:16:42;5.07;;;4.00;;
12758;SDS011;20944;47.048;15.390;2023-06-22T04:19:10;11.32;;;4.40;;
12758;SDS011;20944;47.048;15.390;2023-06-22T04:21:43;5.38;;;3.95;;
12758;SDS011;20944;47.048;15.390;2023-06-22T04:24:12;6.10;;;4.35;;
12758;SDS011;20944;47.048;15.390;2023-06-22T04:26:40;5.60;;;4.22;;
12758;SDS011;20944;47.048;15.390;2023-06-22T04:29:13;8.07;;;4.38;;
12758;SDS011;20944;47.048;15.390;2023-06-22T04:31:42;7.57;;;4.30;;
12758;SDS011;20944;47.048;15.390;2023-06-22T04:34:10;8.25;;;4.47;;
12758;SDS011;20944;47.048;15.390;2023-06-22T04:36:40;7.95;;;4.40;;
12758;SDS011;20944;47.048;15.390;2023-06-22T04:39:09;5.25;;;4.25;;
12758;SDS011;20944;47.048;15.390;2023-06-22T04:41:39;3.85;;;3.50;;
12758;SDS011;20944;47.048;15.390;2023-06-22T04:44:12;6.30;;;4.10;;
12758;SDS011;20944;47.048;15.390;2023-06-22T04:46:50;6.03;;;4.13;;
12758;SDS011;20944;47.048;15.390;2023-06-22T04:49:20;5.65;;;4.43;;
12758;SDS011;20944;47.048;15.390;2023-06-22T04:51:49;10.18;;;4.57;;
12758;SDS011;20944;47.048;15.390;2023-06-22T04:54:18;6.30;;;4.22;;
12758;SDS011;20944;47.048;15.390;2023-06-22T04:56:47;7.20;;;4.40;;
12758;SDS011;20944;47.048;15.390;2023-06-22T04:59:21;6.25;;;4.65;;
12758;SDS011;20944;47.048;15.390;2023-06-22T05:01:55;7.53;;;4.78;;
12758;SDS011;20944;47.048;15.390;2023-06-22T05:04:25;13.25;;;4.50;;
12758;SDS011;20944;47.048;15.390;2023-06-22T05:06:54;6.75;;;5.05;;
12758;SDS011;20944;47.048;15.390;2023-06-22T05:09:23;6.70;;;4.05;;
12758;SDS011;20944;47.048;15.390;2023-06-22T05:11:52;6.82;;;4.63;;
12758;SDS011;20944;47.048;15.390;2023-06-22T05:14:22;10.15;;;5.10;;
12758;SDS011;20944;47.048;15.390;2023-06-22T05:16:50;10.80;;;4.93;;
12758;SDS011;20944;47.048;15.390;2023-06-22T05:19:19;6.38;;;4.10;;
12758;SDS011;20944;47.048;15.390;2023-06-22T05:21:48;7.28;;;4.57;;
12758;SDS011;20944;47.048;15.390;2023-06-22T05:24:16;8.25;;;5.07;;
12758;SDS011;20944;47.048;15.390;2023-06-22T05:26:45;9.45;;;5.13;;
12758;SDS011;20944;47.048;15.390;2023-06-22T05:29:13;6.35;;;4.82;;
12758;SDS011;20944;47.048;15.390;2023-06-22T05:31:43;5.65;;;4.75;;
12758;SDS011;20944;47.048;15.390;2023-06-22T05:34:11;5.55;;;4.88;;
12758;SDS011;20944;47.048;15.390;2023-06-22T05:36:40;8.05;;;4.95;;
12758;SDS011;20944;47.048;15.390;2023-06-22T05:39:10;6.47;;;5.13;;
12758;SDS011;20944;47.048;15.390;2023-06-22T05:41:40;9.80;;;5.68;;
12758;SDS011;20944;47.048;15.390;2023-06-22T05:44:10;5.30;;;4.10;;
12758;SDS011;20944;47.048;15.390;2023-06-22T05:46:40;7.13;;;4.55;;
12758;SDS011;20944;47.048;15.390;2023-06-22T05:49:12;6.35;;;4.78;;
12758;SDS011;20944;47.048;15.390;2023-06-22T05:51:41;7.20;;;4.70;;
12758;SDS011;20944;47.048;15.390;2023-06-22T05:54:10;7.25;;;4.55;;
12758;SDS011;20944;47.048;15.390;2023-06-22T05:56:40;10.02;;;5.30;;
12758;SDS011;20944;47.048;15.390;2023-06-22T05:59:08;7.07;;;4.88;;
12758;SDS011;20944;47.048;15.390;2023-06-22T06:01:37;6.53;;;4.68;;
12758;SDS011;20944;47.048;15.390;2023-06-22T06:04:06;7.47;;;5.22;;
12758;SDS011;20944;47.048;15.390;2023-06-22T06:06:37;5.47;;;4.65;;
12758;SDS011;20944;47.048;15.390;2023-06-22T06:09:06;6.03;;;5.03;;
12758;SDS011;20944;47.048;15.390;2023-06-22T06:11:34;8.90;;;5.43;;
12758;SDS011;20944;47.048;15.390;2023-06-22T06:14:02;9.18;;;5.45;;
12758;SDS011;20944;47.048;15.390;2023-06-22T06:16:31;8.75;;;5.10;;
12758;SDS011;20944;47.048;15.390;2023-06-22T06:19:00;7.32;;;5.45;;
12758;SDS011;20944;47.048;15.390;2023-06-22T06:21:28;11.77;;;5.60;;
12758;SDS011;20944;47.048;15.390;2023-06-22T06:23:58;7.70;;;5.70;;
12758;SDS011;20944;47.048;15.390;2023-06-22T06:26:27;6.18;;;5.55;;
12758;SDS011;20944;47.048;15.390;2023-06-22T06:28:56;8.57;;;5.40;;
12758;SDS011;20944;47.048;15.390;2023-06-22T06:31:25;8.25;;;5.30;;
12758;SDS011;20944;47.048;15.390;2023-06-22T06:33:55;10.20;;;5.28;;
12758;SDS011;20944;47.048;15.390;2023-06-22T06:36:23;7.10;;;5.00;;
12758;SDS011;20944;47.048;15.390;2023-06-22T06:38:52;7.10;;;4.68;;
12758;SDS011;20944;47.048;15.390;2023-06-22T06:41:22;9.40;;;5.20;;
12758;SDS011;20944;47.048;15.390;2023-06-22T06:43:51;9.27;;;4.85;;
12758;SDS011;20944;47.048;15.390;2023-06-22T06:46:19;6.07;;;4.65;;
12758;SDS011;20944;47.048;15.390;2023-06-22T06:48:48;5.75;;;5.15;;
12758;SDS011;20944;47.048;15.390;2023-06-22T06:51:16;5.25;;;4.53;;
12758;SDS011;20944;47.048;15.390;2023-06-22T06:53:45;6.25;;;5.00;;
12758;SDS011;20944;47.048;15.390;2023-06-22T06:56:13;9.55;;;5.28;;
12758;SDS011;20944;47.048;15.390;2023-06-22T06:58:44;7.75;;;4.60;;
12758;SDS011;20944;47.048;15.390;2023-06-22T07:01:12;10.77;;;5.25;;
12758;SDS011;20944;47.048;15.390;2023-06-22T07:03:41;7.50;;;5.20;;
12758;SDS011;20944;47.048;15.390;2023-06-22T07:06:09;8.32;;;5.38;;
12758;SDS011;20944;47.048;15.390;2023-06-22T07:08:38;8.23;;;5.05;;
12758;SDS011;20944;47.048;15.390;2023-06-22T07:11:06;6.95;;;5.05;;
12758;SDS011;20944;47.048;15.390;2023-06-22T07:13:35;6.82;;;5.25;;
12758;SDS011;20944;47.048;15.390;2023-06-22T07:16:05;7.90;;;4.35;;
12758;SDS011;20944;47.048;15.390;2023-06-22T07:18:33;6.72;;;5.32;;
12758;SDS011;20944;47.048;15.390;2023-06-22T07:21:02;7.70;;;5.60;;
12758;SDS011;20944;47.048;15.390;2023-06-22T07:23:33;9.32;;;6.25;;
12758;SDS011;20944;47.048;15.390;2023-06-22T07:26:01;9.18;;;5.93;;
12758;SDS011;20944;47.048;15.390;2023-06-22T07:28:29;7.25;;;5.13;;
12758;SDS011;20944;47.048;15.390;2023-06-22T07:31:05;8.88;;;5.50;;
12758;SDS011;20944;47.048;15.390;2023-06-22T07:33:33;7.97;;;5.55;;
12758;SDS011;20944;47.048;15.390;2023-06-22T07:36:02;8.40;;;6.00;;
12758;SDS011;20944;47.048;15.390;2023-06-22T07:38:34;8.55;;;5.13;;
12758;SDS011;20944;47.048;15.390;2023-06-22T07:41:03;5.88;;;4.80;;
12758;SDS011;20944;47.048;15.390;2023-06-22T07:43:32;6.43;;;5.00;;
12758;SDS011;20944;47.048;15.390;2023-06-22T07:46:01;6.70;;;5.20;;
12758;SDS011;20944;47.048;15.390;2023-06-22T07:48:31;7.63;;;5.07;;
12758;SDS011;20944;47.048;15.390;2023-06-22T07:50:59;7.35;;;5.38;;
12758;SDS011;20944;47.048;15.390;2023-06-22T07:53:28;7.15;;;5.53;;
12758;SDS011;20944;47.048;15.390;2023-06-22T07:55:56;10.18;;;4.85;;
12758;SDS011;20944;47.048;15.390;2023-06-22T07:58:25;8.43;;;5.10;;
12758;SDS011;20944;47.048;15.390;2023-06-22T08:00:53;5.90;;;4.53;;
12758;SDS011;20944;47.048;15.390;2023-06-22T08:03:21;6.13;;;5.30;;
12758;SDS011;20944;47.048;15.390;2023-06-22T08:05:52;8.30;;;5.93;;
12758;SDS011;20944;47.048;15.390;2023-06-22T08:08:20;11.23;;;5.57;;
12758;SDS011;20944;47.048;15.390;2023-06-22T08:10:49;8.07;;;4.68;;
12758;SDS011;20944;47.048;15.390;2023-06-22T08:13:17;7.22;;;5.05;;
12758;SDS011;20944;47.048;15.390;2023-06-22T08:15:46;6.18;;;5.20;;
12758;SDS011;20944;47.048;15.390;2023-06-22T08:18:16;8.38;;;5.03;;
12758;SDS011;20944;47.048;15.390;2023-06-22T08:20:44;6.90;;;5.22;;
12758;SDS011;20944;47.048;15.390;2023-06-22T08:23:14;5.80;;;5.18;;
12758;SDS011;20944;47.048;15.390;2023-06-22T08:25:43;5.53;;;4.93;;
12758;SDS011;20944;47.048;15.390;2023-06-22T08:28:12;5.40;;;4.45;;
12758;SDS011;20944;47.048;15.390;2023-06-22T08:30:40;5.82;;;5.05;;
12758;SDS011;20944;47.048;15.390;2023-06-22T08:33:09;5.50;;;4.88;;
12758;SDS011;20944;47.048;15.390;2023-06-22T08:35:45;6.13;;;4.20;;
12758;SDS011;20944;47.048;15.390;2023-06-22T08:38:15;6.72;;;4.88;;
12758;SDS011;20944;47.048;15.390;2023-06-22T08:40:45;5.95;;;4.22;;
12758;SDS011;20944;47.048;15.390;2023-06-22T08:43:14;5.95;;;5.25;;
12758;SDS011;20944;47.048;15.390;2023-06-22T08:45:42;8.07;;;4.13;;
12758;SDS011;20944;47.048;15.390;2023-06-22T08:48:11;7.07;;;4.90;;
12758;SDS011;20944;47.048;15.390;2023-06-22T08:50:39;8.35;;;4.65;;
12758;SDS011;20944;47.048;15.390;2023-06-22T08:53:08;5.20;;;4.50;;
12758;SDS011;20944;47.048;15.390;2023-06-22T08:55:38;6.10;;;4.95;;
12758;SDS011;20944;47.048;15.390;2023-06-22T08:58:07;9.35;;;5.45;;
12758;SDS011;20944;47.048;15.390;2023-06-22T09:00:35;7.22;;;5.03;;
12758;SDS011;20944;47.048;15.390;2023-06-22T09:03:04;5.30;;;4.72;;
12758;SDS011;20944;47.048;15.390;2023-06-22T09:05:33;5.55;;;4.95;;
12758;SDS011;20944;47.048;15.390;2023-06-22T09:08:01;6.97;;;5.28;;
12758;SDS011;20944;47.048;15.390;2023-06-22T09:10:30;5.45;;;4.95;;
12758;SDS011;20944;47.048;15.390;2023-06-22T09:13:00;5.88;;;5.20;;
12758;SDS011;20944;47.048;15.390;2023-06-22T09:15:29;8.32;;;5.20;;
12758;SDS011;20944;47.048;15.390;2023-06-22T09:17:58;5.97;;;5.03;;
12758;SDS011;20944;47.048;15.390;2023-06-22T09:20:27;5.72;;;4.55;;
12758;SDS011;20944;47.048;15.390;2023-06-22T09:22:56;7.20;;;5.07;;
12758;SDS011;20944;47.048;15.390;2023-06-22T09:25:25;8.50;;;5.47;;
12758;SDS011;20944;47.048;15.390;2023-06-22T09:27:54;6.03;;;5.28;;
12758;SDS011;20944;47.048;15.390;2023-06-22T09:30:24;5.30;;;4.75;;
12758;SDS011;20944;47.048;15.390;2023-06-22T09:32:53;5.38;;;4.88;;
12758;SDS011;20944;47.048;15.390;2023-06-22T09:35:21;7.75;;;5.25;;
12758;SDS011;20944;47.048;15.390;2023-06-22T09:37:50;9.60;;;5.38;;
12758;SDS011;20944;47.048;15.390;2023-06-22T09:40:21;6.35;;;4.90;;
12758;SDS011;20944;47.048;15.390;2023-06-22T09:42:50;6.10;;;4.53;;
12758;SDS011;20944;47.048;15.390;2023-06-22T09:45:18;6.28;;;4.72;;
12758;SDS011;20944;47.048;15.390;2023-06-22T09:47:48;5.18;;;4.68;;
12758;SDS011;20944;47.048;15.390;2023-06-22T09:50:16;5.30;;;4.75;;
12758;SDS011;20944;47.048;15.390;2023-06-22T09:52:45;6.43;;;5.43;;
12758;SDS011;20944;47.048;15.390;2023-06-22T09:55:17;6.22;;;4.93;;
12758;SDS011;20944;47.048;15.390;2023-06-22T09:57:45;11.18;;;4.55;;
12758;SDS011;20944;47.048;15.390;2023-06-22T10:00:14;5.88;;;5.10;;
12758;SDS011;20944;47.048;15.390;2023-06-22T10:02:46;5.13;;;4.65;;
12758;SDS011;20944;47.048;15.390;2023-06-22T10:05:17;5.38;;;4.85;;
12758;SDS011;20944;47.048;15.390;2023-06-22T10:07:46;5.70;;;4.68;;
12758;SDS011;20944;47.048;15.390;2023-06-22T10:10:15;6.57;;;4.78;;
12758;SDS011;20944;47.048;15.390;2023-06-22T10:12:45;5.45;;;4.45;;
12758;SDS011;20944;47.048;15.390;2023-06-22T10:15:15;7.20;;;5.35;;
12758;SDS011;20944;47.048;15.390;2023-06-22T10:17:44;5.50;;;4.93;;
12758;SDS011;20944;47.048;15.390;2023-06-22T10:20:14;5.75;;;5.13;;
12758;SDS011;20944;47.048;15.390;2023-06-22T10:22:45;6.85;;;4.80;;
12758;SDS011;20944;47.048;15.390;2023-06-22T10:25:13;6.85;;;4.60;;
12758;SDS011;20944;47.048;15.390;2023-06-22T10:27:42;6.00;;;4.75;;
12758;SDS011;20944;47.048;15.390;2023-06-22T10:30:11;7.88;;;5.13;;
12758;SDS011;20944;47.048;15.390;2023-06-22T10:32:41;9.98;;;5.13;;
12758;SDS011;20944;47.048;15.390;2023-06-22T10:35:10;5.00;;;4.60;;
12758;SDS011;20944;47.048;15.390;2023-06-22T10:37:53;6.88;;;5.38;;
12758;SDS011;20944;47.048;15.390;2023-06-22T10:40:22;7.95;;;5.43;;
12758;SDS011;20944;47.048;15.390;2023-06-22T10:42:51;9.00;;;5.43;;
12758;SDS011;20944;47.048;15.390;2023-06-22T10:45:19;6.78;;;5.50;;
12758;SDS011;20944;47.048;15.390;2023-06-22T10:47:48;5.88;;;5.03;;
12758;SDS011;20944;47.048;15.390;2023-06-22T10:50:17;6.07;;;4.85;;
12758;SDS011;20944;47.048;15.390;2023-06-22T10:52:46;8.20;;;5.47;;
12758;SDS011;20944;47.048;15.390;2023-06-22T10:55:19;6.55;;;5.68;;
12758;SDS011;20944;47.048;15.390;2023-06-22T10:57:48;5.60;;;5.10;;
12758;SDS011;20944;47.048;15.390;2023-06-22T11:00:16;4.65;;;4.25;;
12758;SDS011;20944;47.048;15.390;2023-06-22T11:02:45;7.88;;;4.78;;
12758;SDS011;20944;47.048;15.390;2023-06-22T11:05:14;8.05;;;5.90;;
12758;SDS011;20944;47.048;15.390;2023-06-22T11:07:42;7.00;;;4.72;;
12758;SDS011;20944;47.048;15.390;2023-06-22T11:10:12;7.18;;;5.13;;
12758;SDS011;20944;47.048;15.390;2023-06-22T11:12:42;5.63;;;4.72;;
12758;SDS011;20944;47.048;15.390;2023-06-22T11:15:11;6.45;;;4.70;;
12758;SDS011;20944;47.048;15.390;2023-06-22T11:17:39;7.10;;;4.68;;
12758;SDS011;20944;47.048;15.390;2023-06-22T11:20:08;7.45;;;5.60;;
12758;SDS011;20944;47.048;15.390;2023-06-22T11:22:38;8.32;;;5.55;;
12758;SDS011;20944;47.048;15.390;2023-06-22T11:25:06;8.15;;;5.47;;
12758;SDS011;20944;47.048;15.390;2023-06-22T11:27:35;5.97;;;5.30;;
12758;SDS011;20944;47.048;15.390;2023-06-22T11:30:06;8.57;;;5.50;;
12758;SDS011;20944;47.048;15.390;2023-06-22T11:32:35;7.47;;;5.45;;
12758;SDS011;20944;47.048;15.390;2023-06-22T11:35:04;5.72;;;5.20;;
12758;SDS011;20944;47.048;15.390;2023-06-22T11:37:33;6.57;;;5.40;;
12758;SDS011;20944;47.048;15.390;2023-06-22T11:40:01;6.45;;;5.25;;
12758;SDS011;20944;47.048;15.390;2023-06-22T11:42:34;6.07;;;4.97;;
12758;SDS011;20944;47.048;15.390;2023-06-22T11:45:04;11.23;;;5.70;;
12758;SDS011;20944;47.048;15.390;2023-06-22T11:47:34;5.97;;;4.70;;
12758;SDS011;20944;47.048;15.390;2023-06-22T11:50:04;7.28;;;5.63;;
12758;SDS011;20944;47.048;15.390;2023-06-22T11:52:34;7.03;;;5.13;;
12758;SDS011;20944;47.048;15.390;2023-06-22T11:55:04;6.32;;;5.30;;
12758;SDS011;20944;47.048;15.390;2023-06-22T11:57:33;7.13;;;5.45;;
12758;SDS011;20944;47.048;15.390;2023-06-22T12:00:04;8.82;;;5.82;;
12758;SDS011;20944;47.048;15.390;2023-06-22T12:02:44;6.35;;;5.57;;
12758;SDS011;20944;47.048;15.390;2023-06-22T12:05:13;6.75;;;5.63;;
12758;SDS011;20944;47.048;15.390;2023-06-22T12:07:42;8.13;;;5.43;;
12758;SDS011;20944;47.048;15.390;2023-06-22T12:10:10;7.10;;;4.80;;
12758;SDS011;20944;47.048;15.390;2023-06-22T12:12:39;5.90;;;5.25;;
12758;SDS011;20944;47.048;15.390;2023-06-22T12:15:09;6.25;;;5.65;;
12758;SDS011;20944;47.048;15.390;2023-06-22T12:17:39;7.38;;;5.00;;
12758;SDS011;20944;47.048;15.390;2023-06-22T12:20:08;9.48;;;5.80;;
12758;SDS011;20944;47.048;15.390;2023-06-22T12:22:37;6.32;;;5.22;;
12758;SDS011;20944;47.048;15.390;2023-06-22T12:25:06;5.43;;;4.97;;
12758;SDS011;20944;47.048;15.390;2023-06-22T12:27:35;8.60;;;5.80;;
12758;SDS011;20944;47.048;15.390;2023-06-22T12:30:04;7.15;;;5.82;;
12758;SDS011;20944;47.048;15.390;2023-06-22T12:32:34;13.10;;;5.88;;
12758;SDS011;20944;47.048;15.390;2023-06-22T12:35:03;8.60;;;6.32;;
12758;SDS011;20944;47.048;15.390;2023-06-22T12:37:34;6.00;;;5.40;;
12758;SDS011;20944;47.048;15.390;2023-06-22T12:40:02;6.22;;;5.20;;
12758;SDS011;20944;47.048;15.390;2023-06-22T12:42:31;6.68;;;5.75;;
12758;SDS011;20944;47.048;15.390;2023-06-22T12:45:00;6.93;;;6.00;;
12758;SDS011;20944;47.048;15.390;2023-06-22T12:47:28;6.20;;;5.60;;
12758;SDS011;20944;47.048;15.390;2023-06-22T12:49:58;6.13;;;5.15;;
12758;SDS011;20944;47.048;15.390;2023-06-22T12:52:26;8.15;;;5.47;;
12758;SDS011;20944;47.048;15.390;2023-06-22T12:54:57;7.85;;;6.00;;
12758;SDS011;20944;47.048;15.390;2023-06-22T12:57:26;13.15;;;5.85;;
12758;SDS011;20944;47.048;15.390;2023-06-22T12:59:54;9.05;;;5.60;;
12758;SDS011;20944;47.048;15.390;2023-06-22T13:02:23;8.93;;;5.80;;
12758;SDS011;20944;47.048;15.390;2023-06-22T13:04:52;5.70;;;5.10;;
12758;SDS011;20944;47.048;15.390;2023-06-22T13:07:22;8.25;;;5.15;;
12758;SDS011;20944;47.048;15.390;2023-06-22T13:09:50;6.40;;;5.65;;
12758;SDS011;20944;47.048;15.390;2023-06-22T13:12:19;9.13;;;6.22;;
12758;SDS011;20944;47.048;15.390;2023-06-22T13:14:48;6.28;;;5.60;;
12758;SDS011;20944;47.048;15.390;2023-06-22T13:17:17;8.95;;;5.35;;
12758;SDS011;20944;47.048;15.390;2023-06-22T13:19:45;10.35;;;6.13;;
12758;SDS011;20944;47.048;15.390;2023-06-22T13:22:28;6.45;;;5.82;;
12758;SDS011;20944;47.048;15.390;2023-06-22T13:24:58;8.10;;;5.22;;
12758;SDS011;20944;47.048;15.390;2023-06-22T13:27:27;8.07;;;5.38;;
12758;SDS011;20944;47.048;15.390;2023-06-22T13:29:56;6.32;;;5.63;;
12758;SDS011;20944;47.048;15.390;2023-06-22T13:32:25;5.20;;;4.80;;
12758;SDS011;20944;47.048;15.390;2023-06-22T13:34:53;6.90;;;5.80;;
12758;SDS011;20944;47.048;15.390;2023-06-22T13:37:22;6.32;;;5.07;;
12758;SDS011;20944;47.048;15.390;2023-06-22T13:39:52;6.13;;;5.35;;
12758;SDS011;20944;47.048;15.390;2023-06-22T13:42:23;5.90;;;5.30;;
12758;SDS011;20944;47.048;15.390;2023-06-22T13:44:52;6.82;;;5.47;;
12758;SDS011;20944;47.048;15.390;2023-06-22T13:47:20;7.10;;;5.55;;
12758;SDS011;20944;47.048;15.390;2023-06-22T13:49:49;7.35;;;5.60;;
12758;SDS011;20944;47.048;15.390;2023-06-22T13:52:17;5.63;;;5.13;;
12758;SDS011;20944;47.048;15.390;2023-06-22T13:54:46;6.80;;;5.60;;
12758;SDS011;20944;47.048;15.390;2023-06-22T13:57:15;9.27;;;6.10;;
12758;SDS011;20944;47.048;15.390;2023-06-22T13:59:44;7.95;;;5.90;;
12758;SDS011;20944;47.048;15.390;2023-06-22T14:02:12;5.95;;;5.45;;
12758;SDS011;20944;47.048;15.390;2023-06-22T14:04:41;7.25;;;5.50;;
12758;SDS011;20944;47.048;15.390;2023-06-22T14:07:10;7.10;;;5.03;;
12758;SDS011;20944;47.048;15.390;2023-06-22T14:09:39;8.75;;;5.50;;
12758;SDS011;20944;47.048;15.390;2023-06-22T14:12:08;6.82;;;5.45;;
12758;SDS011;20944;47.048;15.390;2023-06-22T14:14:39;11.35;;;6.32;;
12758;SDS011;20944;47.048;15.390;2023-06-22T14:17:07;8.43;;;5.70;;
12758;SDS011;20944;47.048;15.390;2023-06-22T14:19:36;6.10;;;5.47;;
12758;SDS011;20944;47.048;15.390;2023-06-22T14:22:05;5.90;;;5.30;;
12758;SDS011;20944;47.048;15.390;2023-06-22T14:24:33;8.52;;;5.93;;
12758;SDS011;20944;47.048;15.390;2023-06-22T14:27:02;6.20;;;5.60;;
12758;SDS011;20944;47.048;15.390;2023-06-22T14:29:34;8.55;;;6.63;;
12758;SDS011;20944;47.048;15.390;2023-06-22T14:32:04;7.40;;;5.25;;
12758;SDS011;20944;47.048;15.390;2023-06-22T14:34:34;11.45;;;7.10;;
12758;SDS011;20944;47.048;15.390;2023-06-22T14:37:06;7.85;;;6.47;;
12758;SDS011;20944;47.048;15.390;2023-06-22T14:39:36;6.72;;;6.13;;
12758;SDS011;20944;47.048;15.390;2023-06-22T14:42:05;6.85;;;5.60;;
12758;SDS011;20944;47.048;15.390;2023-06-22T14:44:33;5.55;;;4.82;;
12758;SDS011;20944;47.048;15.390;2023-06-22T14:47:03;6.68;;;5.57;;